sensor_id;sensor_type;location;lat;lon;timestamp;P1;durP1;ratioP1;P2;durP2;ratioP2
79249;SDS011;68679;51.030;7.584;2023-09-30T00:02:16;6.67;;;2.00;;
79249;SDS011;68679;51.030;7.584;2023-09-30T00:04:41;6.03;;;1.77;;
79249;SDS011;68679;51.030;7.584;2023-09-30T00:07:06;4.23;;;1.43;;
79249;SDS011;68679;51.030;7.584;2023-09-30T00:09:32;5.55;;;2.30;;
79249;SDS011;68679;51.030;7.584;2023-09-30T00:11:58;5.50;;;2.65;;
79249;SDS011;68679;51.030;7.584;2023-09-30T00:14:24;5.85;;;1.98;;
79249;SDS011;68679;51.030;7.584;2023-09-30T00:16:50;5.73;;;2.60;;
79249;SDS011;68679;51.030;7.584;2023-09-30T00:19:15;4.65;;;2.08;;
79249;SDS011;68679;51.030;7.584;2023-09-30T00:21:41;4.30;;;1.80;;
79249;SDS011;68679;51.030;7.584;2023-09-30T00:24:06;5.50;;;1.63;;
79249;SDS011;68679;51.030;7.584;2023-09-30T00:26:31;7.60;;;2.20;;
79249;SDS011;68679;51.030;7.584;2023-09-30T00:28:57;4.05;;;1.70;;
79249;SDS011;68679;51.030;7.584;2023-09-30T00:31:22;11.60;;;2.73;;
79249;SDS011;68679;51.030;7.584;2023-09-30T00:33:47;5.77;;;2.30;;
79249;SDS011;68679;51.030;7.584;2023-09-30T00:36:13;6.20;;;1.88;;
79249;SDS011;68679;51.030;7.584;2023-09-30T00:38:39;5.85;;;2.15;;
79249;SDS011;68679;51.030;7.584;2023-09-30T00:41:05;5.15;;;1.70;;
79249;SDS011;68679;51.030;7.584;2023-09-30T00:43:32;5.47;;;2.22;;
79249;SDS011;68679;51.030;7.584;2023-09-30T00:46:39;3.33;;;1.48;;
79249;SDS011;68679;51.030;7.584;2023-09-30T00:48:55;6.53;;;1.60;;
79249;SDS011;68679;51.030;7.584;2023-09-30T00:51:23;4.57;;;1.65;;
79249;SDS011;68679;51.030;7.584;2023-09-30T00:53:52;6.40;;;2.58;;
79249;SDS011;68679;51.030;7.584;2023-09-30T00:56:18;5.60;;;2.17;;
79249;SDS011;68679;51.030;7.584;2023-09-30T00:58:45;5.75;;;1.77;;
79249;SDS011;68679;51.030;7.584;2023-09-30T01:01:12;5.05;;;2.00;;
79249;SDS011;68679;51.030;7.584;2023-09-30T01:03:38;4.45;;;1.75;;
79249;SDS011;68679;51.030;7.584;2023-09-30T01:06:03;7.70;;;2.55;;
79249;SDS011;68679;51.030;7.584;2023-09-30T01:08:28;4.38;;;1.60;;
79249;SDS011;68679;51.030;7.584;2023-09-30T01:10:54;4.97;;;1.95;;
79249;SDS011;68679;51.030;7.584;2023-09-30T01:13:21;3.95;;;1.92;;
79249;SDS011;68679;51.030;7.584;2023-09-30T01:15:46;4.93;;;2.08;;
79249;SDS011;68679;51.030;7.584;2023-09-30T01:18:12;7.15;;;2.20;;
79249;SDS011;68679;51.030;7.584;2023-09-30T01:20:37;5.85;;;2.53;;
79249;SDS011;68679;51.030;7.584;2023-09-30T01:23:03;4.65;;;1.83;;
79249;SDS011;68679;51.030;7.584;2023-09-30T01:25:28;4.13;;;1.95;;
79249;SDS011;68679;51.030;7.584;2023-09-30T01:27:54;5.50;;;1.92;;
79249;SDS011;68679;51.030;7.584;2023-09-30T01:30:20;4.60;;;2.33;;
79249;SDS011;68679;51.030;7.584;2023-09-30T01:32:47;4.68;;;2.13;;
79249;SDS011;68679;51.030;7.584;2023-09-30T01:35:13;4.68;;;1.92;;
79249;SDS011;68679;51.030;7.584;2023-09-30T01:37:38;5.10;;;2.10;;
79249;SDS011;68679;51.030;7.584;2023-09-30T01:40:04;5.57;;;1.83;;
79249;SDS011;68679;51.030;7.584;2023-09-30T01:42:33;8.50;;;2.25;;
79249;SDS011;68679;51.030;7.584;2023-09-30T01:44:58;8.30;;;2.63;;
79249;SDS011;68679;51.030;7.584;2023-09-30T01:47:23;7.10;;;2.50;;
79249;SDS011;68679;51.030;7.584;2023-09-30T01:49:48;5.90;;;2.33;;
79249;SDS011;68679;51.030;7.584;2023-09-30T01:52:14;6.40;;;2.20;;
79249;SDS011;68679;51.030;7.584;2023-09-30T01:54:39;6.60;;;2.15;;
79249;SDS011;68679;51.030;7.584;2023-09-30T01:57:05;6.10;;;2.30;;
79249;SDS011;68679;51.030;7.584;2023-09-30T01:59:30;4.90;;;1.53;;
79249;SDS011;68679;51.030;7.584;2023-09-30T02:01:55;6.73;;;2.57;;
79249;SDS011;68679;51.030;7.584;2023-09-30T02:04:21;7.90;;;2.30;;
79249;SDS011;68679;51.030;7.584;2023-09-30T02:06:46;4.33;;;2.17;;
79249;SDS011;68679;51.030;7.584;2023-09-30T02:09:11;7.33;;;2.33;;
79249;SDS011;68679;51.030;7.584;2023-09-30T02:11:37;4.60;;;2.40;;
79249;SDS011;68679;51.030;7.584;2023-09-30T02:14:03;11.50;;;2.15;;
79249;SDS011;68679;51.030;7.584;2023-09-30T02:16:30;10.73;;;2.42;;
79249;SDS011;68679;51.030;7.584;2023-09-30T02:18:56;5.50;;;2.45;;
79249;SDS011;68679;51.030;7.584;2023-09-30T02:21:21;6.23;;;2.40;;
79249;SDS011;68679;51.030;7.584;2023-09-30T02:23:47;5.68;;;2.60;;
79249;SDS011;68679;51.030;7.584;2023-09-30T02:26:15;7.82;;;2.70;;
79249;SDS011;68679;51.030;7.584;2023-09-30T02:28:41;6.05;;;2.78;;
79249;SDS011;68679;51.030;7.584;2023-09-30T02:31:06;8.13;;;2.27;;
79249;SDS011;68679;51.030;7.584;2023-09-30T02:33:32;5.18;;;2.78;;
79249;SDS011;68679;51.030;7.584;2023-09-30T02:36:00;8.50;;;2.22;;
79249;SDS011;68679;51.030;7.584;2023-09-30T02:38:25;9.18;;;2.67;;
79249;SDS011;68679;51.030;7.584;2023-09-30T02:40:51;6.53;;;3.10;;
79249;SDS011;68679;51.030;7.584;2023-09-30T02:43:16;5.65;;;2.53;;
79249;SDS011;68679;51.030;7.584;2023-09-30T02:45:42;3.70;;;1.97;;
79249;SDS011;68679;51.030;7.584;2023-09-30T02:48:08;7.65;;;3.15;;
79249;SDS011;68679;51.030;7.584;2023-09-30T02:50:34;5.20;;;1.98;;
79249;SDS011;68679;51.030;7.584;2023-09-30T02:52:59;4.35;;;2.22;;
79249;SDS011;68679;51.030;7.584;2023-09-30T02:55:25;3.67;;;1.90;;
79249;SDS011;68679;51.030;7.584;2023-09-30T02:57:50;5.47;;;2.27;;
79249;SDS011;68679;51.030;7.584;2023-09-30T03:00:15;6.30;;;2.30;;
79249;SDS011;68679;51.030;7.584;2023-09-30T03:02:54;6.80;;;2.47;;
79249;SDS011;68679;51.030;7.584;2023-09-30T03:05:20;8.00;;;2.80;;
79249;SDS011;68679;51.030;7.584;2023-09-30T03:07:45;4.60;;;2.28;;
79249;SDS011;68679;51.030;7.584;2023-09-30T03:10:12;8.93;;;3.03;;
79249;SDS011;68679;51.030;7.584;2023-09-30T03:12:39;6.13;;;2.75;;
79249;SDS011;68679;51.030;7.584;2023-09-30T03:15:04;5.80;;;2.78;;
79249;SDS011;68679;51.030;7.584;2023-09-30T03:17:30;5.63;;;2.20;;
79249;SDS011;68679;51.030;7.584;2023-09-30T03:19:57;5.63;;;2.40;;
79249;SDS011;68679;51.030;7.584;2023-09-30T03:22:22;5.65;;;2.45;;
79249;SDS011;68679;51.030;7.584;2023-09-30T03:24:48;10.87;;;2.83;;
79249;SDS011;68679;51.030;7.584;2023-09-30T03:27:13;10.73;;;2.95;;
79249;SDS011;68679;51.030;7.584;2023-09-30T03:29:40;8.65;;;2.67;;
79249;SDS011;68679;51.030;7.584;2023-09-30T03:32:05;8.18;;;2.45;;
79249;SDS011;68679;51.030;7.584;2023-09-30T03:34:31;7.20;;;2.93;;
79249;SDS011;68679;51.030;7.584;2023-09-30T03:36:56;7.07;;;2.30;;
79249;SDS011;68679;51.030;7.584;2023-09-30T03:39:23;6.20;;;2.40;;
79249;SDS011;68679;51.030;7.584;2023-09-30T03:41:52;6.68;;;2.25;;
79249;SDS011;68679;51.030;7.584;2023-09-30T03:44:21;7.25;;;3.20;;
79249;SDS011;68679;51.030;7.584;2023-09-30T03:46:48;7.22;;;3.17;;
79249;SDS011;68679;51.030;7.584;2023-09-30T03:49:13;12.48;;;2.97;;
79249;SDS011;68679;51.030;7.584;2023-09-30T03:51:38;10.30;;;3.70;;
79249;SDS011;68679;51.030;7.584;2023-09-30T03:54:04;8.88;;;2.95;;
79249;SDS011;68679;51.030;7.584;2023-09-30T03:56:30;8.35;;;2.95;;
79249;SDS011;68679;51.030;7.584;2023-09-30T03:58:56;7.72;;;3.55;;
79249;SDS011;68679;51.030;7.584;2023-09-30T04:01:21;9.68;;;3.78;;
79249;SDS011;68679;51.030;7.584;2023-09-30T04:03:48;8.18;;;4.22;;
79249;SDS011;68679;51.030;7.584;2023-09-30T04:06:13;8.98;;;3.38;;
79249;SDS011;68679;51.030;7.584;2023-09-30T04:08:39;6.90;;;3.10;;
79249;SDS011;68679;51.030;7.584;2023-09-30T04:11:05;10.65;;;3.40;;
79249;SDS011;68679;51.030;7.584;2023-09-30T04:13:30;9.73;;;3.28;;
79249;SDS011;68679;51.030;7.584;2023-09-30T04:15:56;7.28;;;2.92;;
79249;SDS011;68679;51.030;7.584;2023-09-30T04:18:23;7.60;;;3.55;;
79249;SDS011;68679;51.030;7.584;2023-09-30T04:20:51;10.50;;;3.45;;
79249;SDS011;68679;51.030;7.584;2023-09-30T04:23:16;11.27;;;3.58;;
79249;SDS011;68679;51.030;7.584;2023-09-30T04:25:44;10.95;;;3.55;;
79249;SDS011;68679;51.030;7.584;2023-09-30T04:28:09;7.23;;;2.90;;
79249;SDS011;68679;51.030;7.584;2023-09-30T04:30:35;8.37;;;3.40;;
79249;SDS011;68679;51.030;7.584;2023-09-30T04:33:00;9.35;;;3.78;;
79249;SDS011;68679;51.030;7.584;2023-09-30T04:35:26;12.52;;;4.25;;
79249;SDS011;68679;51.030;7.584;2023-09-30T04:37:51;8.38;;;2.90;;
79249;SDS011;68679;51.030;7.584;2023-09-30T04:40:17;7.68;;;3.15;;
79249;SDS011;68679;51.030;7.584;2023-09-30T04:42:46;7.85;;;3.85;;
79249;SDS011;68679;51.030;7.584;2023-09-30T04:45:12;7.43;;;3.17;;
79249;SDS011;68679;51.030;7.584;2023-09-30T04:47:41;8.65;;;3.78;;
79249;SDS011;68679;51.030;7.584;2023-09-30T04:50:09;6.03;;;3.05;;
79249;SDS011;68679;51.030;7.584;2023-09-30T04:52:36;8.07;;;3.85;;
79249;SDS011;68679;51.030;7.584;2023-09-30T04:55:03;7.15;;;3.03;;
79249;SDS011;68679;51.030;7.584;2023-09-30T04:57:29;10.63;;;4.40;;
79249;SDS011;68679;51.030;7.584;2023-09-30T04:59:55;12.30;;;3.25;;
79249;SDS011;68679;51.030;7.584;2023-09-30T05:02:20;14.10;;;3.97;;
79249;SDS011;68679;51.030;7.584;2023-09-30T05:04:45;10.03;;;3.93;;
79249;SDS011;68679;51.030;7.584;2023-09-30T05:07:10;9.23;;;3.27;;
79249;SDS011;68679;51.030;7.584;2023-09-30T05:09:38;9.57;;;3.58;;
79249;SDS011;68679;51.030;7.584;2023-09-30T05:12:03;9.05;;;4.10;;
79249;SDS011;68679;51.030;7.584;2023-09-30T05:14:29;8.05;;;3.20;;
79249;SDS011;68679;51.030;7.584;2023-09-30T05:16:54;8.75;;;3.08;;
79249;SDS011;68679;51.030;7.584;2023-09-30T05:19:21;6.30;;;2.47;;
79249;SDS011;68679;51.030;7.584;2023-09-30T05:21:46;5.93;;;2.55;;
79249;SDS011;68679;51.030;7.584;2023-09-30T05:24:12;6.88;;;2.97;;
79249;SDS011;68679;51.030;7.584;2023-09-30T05:26:37;5.53;;;2.37;;
79249;SDS011;68679;51.030;7.584;2023-09-30T05:29:03;9.90;;;3.70;;
79249;SDS011;68679;51.030;7.584;2023-09-30T05:31:28;7.82;;;2.83;;
79249;SDS011;68679;51.030;7.584;2023-09-30T05:33:54;13.45;;;3.45;;
79249;SDS011;68679;51.030;7.584;2023-09-30T05:36:20;7.28;;;2.55;;
79249;SDS011;68679;51.030;7.584;2023-09-30T05:38:45;6.63;;;2.90;;
79249;SDS011;68679;51.030;7.584;2023-09-30T05:41:13;9.43;;;2.70;;
79249;SDS011;68679;51.030;7.584;2023-09-30T05:43:39;9.65;;;2.97;;
79249;SDS011;68679;51.030;7.584;2023-09-30T05:46:05;6.03;;;2.50;;
79249;SDS011;68679;51.030;7.584;2023-09-30T05:48:31;6.60;;;2.72;;
79249;SDS011;68679;51.030;7.584;2023-09-30T05:50:56;5.67;;;2.20;;
79249;SDS011;68679;51.030;7.584;2023-09-30T05:53:22;9.15;;;2.70;;
79249;SDS011;68679;51.030;7.584;2023-09-30T05:55:47;8.30;;;2.83;;
79249;SDS011;68679;51.030;7.584;2023-09-30T05:58:13;6.63;;;2.30;;
79249;SDS011;68679;51.030;7.584;2023-09-30T06:00:41;6.50;;;2.50;;
79249;SDS011;68679;51.030;7.584;2023-09-30T06:03:07;7.28;;;3.13;;
79249;SDS011;68679;51.030;7.584;2023-09-30T06:05:33;7.82;;;2.95;;
79249;SDS011;68679;51.030;7.584;2023-09-30T06:07:59;6.55;;;2.58;;
79249;SDS011;68679;51.030;7.584;2023-09-30T06:10:28;5.20;;;2.30;;
79249;SDS011;68679;51.030;7.584;2023-09-30T06:12:54;8.13;;;3.15;;
79249;SDS011;68679;51.030;7.584;2023-09-30T06:15:22;5.72;;;2.40;;
79249;SDS011;68679;51.030;7.584;2023-09-30T06:17:50;8.18;;;2.58;;
79249;SDS011;68679;51.030;7.584;2023-09-30T06:20:22;7.05;;;3.28;;
79249;SDS011;68679;51.030;7.584;2023-09-30T06:22:51;5.78;;;2.38;;
79249;SDS011;68679;51.030;7.584;2023-09-30T06:25:16;6.70;;;2.70;;
79249;SDS011;68679;51.030;7.584;2023-09-30T06:27:47;10.82;;;3.05;;
79249;SDS011;68679;51.030;7.584;2023-09-30T06:30:13;5.88;;;2.65;;
79249;SDS011;68679;51.030;7.584;2023-09-30T06:32:41;5.45;;;2.70;;
79249;SDS011;68679;51.030;7.584;2023-09-30T06:35:07;6.03;;;2.80;;
79249;SDS011;68679;51.030;7.584;2023-09-30T06:37:35;8.13;;;2.90;;
79249;SDS011;68679;51.030;7.584;2023-09-30T06:40:05;5.95;;;2.70;;
79249;SDS011;68679;51.030;7.584;2023-09-30T06:42:33;6.93;;;2.90;;
79249;SDS011;68679;51.030;7.584;2023-09-30T06:44:59;6.88;;;3.05;;
79249;SDS011;68679;51.030;7.584;2023-09-30T06:47:24;8.77;;;3.72;;
79249;SDS011;68679;51.030;7.584;2023-09-30T06:49:49;8.77;;;2.93;;
79249;SDS011;68679;51.030;7.584;2023-09-30T06:52:15;6.30;;;2.53;;
79249;SDS011;68679;51.030;7.584;2023-09-30T06:54:40;7.00;;;2.80;;
79249;SDS011;68679;51.030;7.584;2023-09-30T06:57:05;8.93;;;3.33;;
79249;SDS011;68679;51.030;7.584;2023-09-30T06:59:32;6.20;;;3.07;;
79249;SDS011;68679;51.030;7.584;2023-09-30T07:01:57;8.15;;;3.10;;
79249;SDS011;68679;51.030;7.584;2023-09-30T07:04:22;7.73;;;3.03;;
79249;SDS011;68679;51.030;7.584;2023-09-30T07:06:48;8.67;;;2.73;;
79249;SDS011;68679;51.030;7.584;2023-09-30T07:09:13;6.73;;;2.67;;
79249;SDS011;68679;51.030;7.584;2023-09-30T07:11:38;8.37;;;3.30;;
79249;SDS011;68679;51.030;7.584;2023-09-30T07:14:03;8.83;;;3.53;;
79249;SDS011;68679;51.030;7.584;2023-09-30T07:16:29;11.70;;;3.92;;
79249;SDS011;68679;51.030;7.584;2023-09-30T07:18:55;8.98;;;3.92;;
79249;SDS011;68679;51.030;7.584;2023-09-30T07:21:20;7.50;;;2.92;;
79249;SDS011;68679;51.030;7.584;2023-09-30T07:23:46;10.77;;;3.40;;
79249;SDS011;68679;51.030;7.584;2023-09-30T07:26:12;10.18;;;3.40;;
79249;SDS011;68679;51.030;7.584;2023-09-30T07:28:38;11.15;;;3.83;;
79249;SDS011;68679;51.030;7.584;2023-09-30T07:31:03;7.37;;;2.67;;
79249;SDS011;68679;51.030;7.584;2023-09-30T07:33:29;9.53;;;3.70;;
79249;SDS011;68679;51.030;7.584;2023-09-30T07:35:54;9.00;;;3.78;;
79249;SDS011;68679;51.030;7.584;2023-09-30T07:38:20;8.98;;;3.55;;
79249;SDS011;68679;51.030;7.584;2023-09-30T07:40:46;10.07;;;3.85;;
79249;SDS011;68679;51.030;7.584;2023-09-30T07:43:11;8.48;;;3.15;;
79249;SDS011;68679;51.030;7.584;2023-09-30T07:45:37;9.55;;;3.28;;
79249;SDS011;68679;51.030;7.584;2023-09-30T07:48:03;9.17;;;2.90;;
79249;SDS011;68679;51.030;7.584;2023-09-30T07:50:29;9.07;;;3.33;;
79249;SDS011;68679;51.030;7.584;2023-09-30T07:52:55;12.20;;;4.28;;
79249;SDS011;68679;51.030;7.584;2023-09-30T07:55:20;6.80;;;3.10;;
79249;SDS011;68679;51.030;7.584;2023-09-30T07:57:46;11.98;;;4.53;;
79249;SDS011;68679;51.030;7.584;2023-09-30T08:00:11;9.03;;;3.27;;
79249;SDS011;68679;51.030;7.584;2023-09-30T08:02:40;11.38;;;3.78;;
79249;SDS011;68679;51.030;7.584;2023-09-30T08:05:06;8.93;;;3.30;;
79249;SDS011;68679;51.030;7.584;2023-09-30T08:07:32;13.35;;;3.97;;
79249;SDS011;68679;51.030;7.584;2023-09-30T08:09:58;13.95;;;4.55;;
79249;SDS011;68679;51.030;7.584;2023-09-30T08:12:24;9.83;;;3.87;;
79249;SDS011;68679;51.030;7.584;2023-09-30T08:14:49;13.27;;;4.40;;
79249;SDS011;68679;51.030;7.584;2023-09-30T08:17:16;12.45;;;4.35;;
79249;SDS011;68679;51.030;7.584;2023-09-30T08:19:42;10.25;;;2.83;;
79249;SDS011;68679;51.030;7.584;2023-09-30T08:22:08;11.85;;;3.60;;
79249;SDS011;68679;51.030;7.584;2023-09-30T08:24:34;11.45;;;4.13;;
79249;SDS011;68679;51.030;7.584;2023-09-30T08:27:00;10.13;;;3.30;;
79249;SDS011;68679;51.030;7.584;2023-09-30T08:29:26;11.07;;;4.22;;
79249;SDS011;68679;51.030;7.584;2023-09-30T08:31:51;10.70;;;4.40;;
79249;SDS011;68679;51.030;7.584;2023-09-30T08:34:16;11.97;;;3.83;;
79249;SDS011;68679;51.030;7.584;2023-09-30T08:36:44;10.95;;;3.88;;
79249;SDS011;68679;51.030;7.584;2023-09-30T08:39:10;12.50;;;4.70;;
79249;SDS011;68679;51.030;7.584;2023-09-30T08:41:35;15.50;;;4.85;;
79249;SDS011;68679;51.030;7.584;2023-09-30T08:44:01;13.48;;;4.60;;
79249;SDS011;68679;51.030;7.584;2023-09-30T08:46:29;13.77;;;4.78;;
79249;SDS011;68679;51.030;7.584;2023-09-30T08:48:57;12.57;;;3.92;;
79249;SDS011;68679;51.030;7.584;2023-09-30T08:51:24;14.32;;;4.68;;
79249;SDS011;68679;51.030;7.584;2023-09-30T08:53:50;12.00;;;3.83;;
79249;SDS011;68679;51.030;7.584;2023-09-30T08:56:19;8.80;;;3.70;;
79249;SDS011;68679;51.030;7.584;2023-09-30T08:58:49;11.48;;;4.18;;
79249;SDS011;68679;51.030;7.584;2023-09-30T09:01:15;8.82;;;3.90;;
79249;SDS011;68679;51.030;7.584;2023-09-30T09:03:41;10.05;;;4.60;;
79249;SDS011;68679;51.030;7.584;2023-09-30T09:06:06;14.53;;;4.07;;
79249;SDS011;68679;51.030;7.584;2023-09-30T09:08:32;12.77;;;4.47;;
79249;SDS011;68679;51.030;7.584;2023-09-30T09:10:59;11.52;;;3.55;;
79249;SDS011;68679;51.030;7.584;2023-09-30T09:13:25;9.45;;;4.20;;
79249;SDS011;68679;51.030;7.584;2023-09-30T09:18:46;8.80;;;3.17;;
79249;SDS011;68679;51.030;7.584;2023-09-30T09:21:14;11.05;;;3.08;;
79249;SDS011;68679;51.030;7.584;2023-09-30T09:23:42;11.48;;;3.60;;
79249;SDS011;68679;51.030;7.584;2023-09-30T09:26:11;10.13;;;3.38;;
79249;SDS011;68679;51.030;7.584;2023-09-30T09:28:49;10.35;;;3.67;;
79249;SDS011;68679;51.030;7.584;2023-09-30T09:31:19;10.50;;;3.47;;
79249;SDS011;68679;51.030;7.584;2023-09-30T09:33:49;8.52;;;3.47;;
79249;SDS011;68679;51.030;7.584;2023-09-30T09:36:15;9.27;;;3.90;;
79249;SDS011;68679;51.030;7.584;2023-09-30T09:38:48;9.40;;;3.90;;
79249;SDS011;68679;51.030;7.584;2023-09-30T09:41:15;11.90;;;3.75;;
79249;SDS011;68679;51.030;7.584;2023-09-30T09:43:42;8.07;;;3.42;;
79249;SDS011;68679;51.030;7.584;2023-09-30T09:46:08;8.40;;;3.72;;
79249;SDS011;68679;51.030;7.584;2023-09-30T09:48:35;9.32;;;3.72;;
79249;SDS011;68679;51.030;7.584;2023-09-30T09:51:02;7.50;;;3.60;;
79249;SDS011;68679;51.030;7.584;2023-09-30T09:53:30;8.07;;;3.35;;
79249;SDS011;68679;51.030;7.584;2023-09-30T09:55:59;6.32;;;3.47;;
79249;SDS011;68679;51.030;7.584;2023-09-30T09:58:24;11.52;;;3.30;;
79249;SDS011;68679;51.030;7.584;2023-09-30T10:00:51;8.45;;;3.47;;
79249;SDS011;68679;51.030;7.584;2023-09-30T10:03:18;7.40;;;4.30;;
79249;SDS011;68679;51.030;7.584;2023-09-30T10:05:43;7.90;;;3.53;;
79249;SDS011;68679;51.030;7.584;2023-09-30T10:08:14;8.70;;;3.50;;
79249;SDS011;68679;51.030;7.584;2023-09-30T10:10:43;10.80;;;3.60;;
79249;SDS011;68679;51.030;7.584;2023-09-30T10:13:49;6.68;;;3.40;;
79249;SDS011;68679;51.030;7.584;2023-09-30T10:19:12;6.45;;;3.17;;
79249;SDS011;68679;51.030;7.584;2023-09-30T10:21:40;8.57;;;3.72;;
79249;SDS011;68679;51.030;7.584;2023-09-30T10:24:50;8.32;;;3.22;;
79249;SDS011;68679;51.030;7.584;2023-09-30T10:29:57;5.88;;;2.85;;
79249;SDS011;68679;51.030;7.584;2023-09-30T10:35:18;6.20;;;3.08;;
79249;SDS011;68679;51.030;7.584;2023-09-30T10:37:44;6.75;;;3.20;;
79249;SDS011;68679;51.030;7.584;2023-09-30T10:40:10;7.45;;;2.72;;
79249;SDS011;68679;51.030;7.584;2023-09-30T10:42:54;7.43;;;2.30;;
79249;SDS011;68679;51.030;7.584;2023-09-30T10:50:50;8.48;;;2.90;;
79249;SDS011;68679;51.030;7.584;2023-09-30T10:53:17;5.07;;;2.45;;
79249;SDS011;68679;51.030;7.584;2023-09-30T10:55:46;7.28;;;2.85;;
79249;SDS011;68679;51.030;7.584;2023-09-30T10:58:19;6.32;;;2.97;;
79249;SDS011;68679;51.030;7.584;2023-09-30T11:00:51;4.97;;;1.95;;
79249;SDS011;68679;51.030;7.584;2023-09-30T11:03:19;5.45;;;2.08;;
79249;SDS011;68679;51.030;7.584;2023-09-30T11:05:47;5.68;;;2.00;;
79249;SDS011;68679;51.030;7.584;2023-09-30T11:08:13;7.70;;;2.47;;
79249;SDS011;68679;51.030;7.584;2023-09-30T11:10:51;4.72;;;1.73;;
79249;SDS011;68679;51.030;7.584;2023-09-30T11:13:17;5.15;;;2.42;;
79249;SDS011;68679;51.030;7.584;2023-09-30T11:15:43;3.92;;;1.67;;
79249;SDS011;68679;51.030;7.584;2023-09-30T11:18:16;5.47;;;2.38;;
79249;SDS011;68679;51.030;7.584;2023-09-30T11:20:43;5.00;;;2.13;;
79249;SDS011;68679;51.030;7.584;2023-09-30T11:23:12;3.75;;;1.90;;
79249;SDS011;68679;51.030;7.584;2023-09-30T11:25:39;4.25;;;1.98;;
79249;SDS011;68679;51.030;7.584;2023-09-30T11:28:12;6.03;;;2.47;;
79249;SDS011;68679;51.030;7.584;2023-09-30T11:30:52;3.55;;;1.92;;
79249;SDS011;68679;51.030;7.584;2023-09-30T11:33:32;3.75;;;1.88;;
79249;SDS011;68679;51.030;7.584;2023-09-30T11:36:12;4.70;;;2.05;;
79249;SDS011;68679;51.030;7.584;2023-09-30T11:38:43;5.57;;;1.83;;
79249;SDS011;68679;51.030;7.584;2023-09-30T11:41:09;4.15;;;1.70;;
79249;SDS011;68679;51.030;7.584;2023-09-30T11:43:35;3.70;;;1.50;;
79249;SDS011;68679;51.030;7.584;2023-09-30T11:46:07;4.40;;;1.65;;
79249;SDS011;68679;51.030;7.584;2023-09-30T11:48:34;4.30;;;1.90;;
79249;SDS011;68679;51.030;7.584;2023-09-30T11:51:01;4.03;;;1.67;;
79249;SDS011;68679;51.030;7.584;2023-09-30T11:53:31;3.80;;;1.60;;
79249;SDS011;68679;51.030;7.584;2023-09-30T11:56:00;4.88;;;1.83;;
79249;SDS011;68679;51.030;7.584;2023-09-30T11:58:28;3.38;;;1.67;;
79249;SDS011;68679;51.030;7.584;2023-09-30T12:00:54;2.75;;;1.55;;
79249;SDS011;68679;51.030;7.584;2023-09-30T12:03:19;4.50;;;1.52;;
79249;SDS011;68679;51.030;7.584;2023-09-30T12:05:45;4.53;;;2.15;;
79249;SDS011;68679;51.030;7.584;2023-09-30T12:08:11;3.72;;;1.88;;
79249;SDS011;68679;51.030;7.584;2023-09-30T12:10:36;6.43;;;2.58;;
79249;SDS011;68679;51.030;7.584;2023-09-30T12:13:02;6.75;;;2.58;;
79249;SDS011;68679;51.030;7.584;2023-09-30T12:15:27;3.20;;;1.55;;
79249;SDS011;68679;51.030;7.584;2023-09-30T12:17:53;3.78;;;1.83;;
79249;SDS011;68679;51.030;7.584;2023-09-30T12:20:18;5.40;;;1.80;;
79249;SDS011;68679;51.030;7.584;2023-09-30T12:22:44;4.45;;;1.70;;
79249;SDS011;68679;51.030;7.584;2023-09-30T12:25:10;5.05;;;2.00;;
79249;SDS011;68679;51.030;7.584;2023-09-30T12:27:35;3.93;;;1.90;;
79249;SDS011;68679;51.030;7.584;2023-09-30T12:30:00;5.50;;;1.93;;
79249;SDS011;68679;51.030;7.584;2023-09-30T12:32:26;6.20;;;2.27;;
79249;SDS011;68679;51.030;7.584;2023-09-30T12:34:51;4.28;;;2.05;;
79249;SDS011;68679;51.030;7.584;2023-09-30T12:37:18;5.10;;;1.88;;
79249;SDS011;68679;51.030;7.584;2023-09-30T12:39:43;6.82;;;3.75;;
79249;SDS011;68679;51.030;7.584;2023-09-30T12:42:10;3.97;;;1.83;;
79249;SDS011;68679;51.030;7.584;2023-09-30T12:44:37;4.28;;;1.73;;
79249;SDS011;68679;51.030;7.584;2023-09-30T12:47:03;3.53;;;1.73;;
79249;SDS011;68679;51.030;7.584;2023-09-30T12:49:30;7.22;;;2.60;;
79249;SDS011;68679;51.030;7.584;2023-09-30T12:51:55;4.15;;;2.00;;
79249;SDS011;68679;51.030;7.584;2023-09-30T12:54:22;4.13;;;1.73;;
79249;SDS011;68679;51.030;7.584;2023-09-30T12:56:48;2.78;;;1.40;;
79249;SDS011;68679;51.030;7.584;2023-09-30T12:59:15;4.45;;;1.95;;
79249;SDS011;68679;51.030;7.584;2023-09-30T13:01:41;4.63;;;2.35;;
79249;SDS011;68679;51.030;7.584;2023-09-30T13:04:06;4.72;;;2.03;;
79249;SDS011;68679;51.030;7.584;2023-09-30T13:06:33;4.85;;;1.88;;
79249;SDS011;68679;51.030;7.584;2023-09-30T13:09:00;4.55;;;1.60;;
79249;SDS011;68679;51.030;7.584;2023-09-30T13:11:26;4.60;;;1.80;;
79249;SDS011;68679;51.030;7.584;2023-09-30T13:13:51;4.60;;;1.83;;
79249;SDS011;68679;51.030;7.584;2023-09-30T13:16:17;3.85;;;1.73;;
79249;SDS011;68679;51.030;7.584;2023-09-30T13:18:43;3.85;;;1.85;;
79249;SDS011;68679;51.030;7.584;2023-09-30T13:21:08;3.63;;;1.60;;
79249;SDS011;68679;51.030;7.584;2023-09-30T13:23:34;4.20;;;1.83;;
79249;SDS011;68679;51.030;7.584;2023-09-30T13:26:00;5.28;;;1.98;;
79249;SDS011;68679;51.030;7.584;2023-09-30T13:28:26;4.47;;;1.88;;
79249;SDS011;68679;51.030;7.584;2023-09-30T13:30:52;4.22;;;1.50;;
79249;SDS011;68679;51.030;7.584;2023-09-30T13:33:18;5.18;;;2.03;;
79249;SDS011;68679;51.030;7.584;2023-09-30T13:35:45;4.07;;;1.70;;
79249;SDS011;68679;51.030;7.584;2023-09-30T13:38:11;3.45;;;1.58;;
79249;SDS011;68679;51.030;7.584;2023-09-30T13:40:36;5.80;;;1.87;;
79249;SDS011;68679;51.030;7.584;2023-09-30T13:43:03;10.70;;;1.92;;
79249;SDS011;68679;51.030;7.584;2023-09-30T13:45:29;5.47;;;2.10;;
79249;SDS011;68679;51.030;7.584;2023-09-30T13:47:55;3.42;;;1.90;;
79249;SDS011;68679;51.030;7.584;2023-09-30T13:50:20;4.60;;;2.05;;
79249;SDS011;68679;51.030;7.584;2023-09-30T13:52:46;4.10;;;1.70;;
79249;SDS011;68679;51.030;7.584;2023-09-30T13:55:11;4.43;;;1.70;;
79249;SDS011;68679;51.030;7.584;2023-09-30T13:57:43;5.78;;;1.65;;
79249;SDS011;68679;51.030;7.584;2023-09-30T14:00:10;4.80;;;1.85;;
79249;SDS011;68679;51.030;7.584;2023-09-30T14:02:36;3.45;;;1.60;;
79249;SDS011;68679;51.030;7.584;2023-09-30T14:05:01;4.23;;;1.80;;
79249;SDS011;68679;51.030;7.584;2023-09-30T14:07:26;4.60;;;1.60;;
79249;SDS011;68679;51.030;7.584;2023-09-30T14:09:53;2.97;;;1.70;;
79249;SDS011;68679;51.030;7.584;2023-09-30T14:12:18;4.03;;;1.60;;
79249;SDS011;68679;51.030;7.584;2023-09-30T14:14:43;4.93;;;1.98;;
79249;SDS011;68679;51.030;7.584;2023-09-30T14:17:09;3.63;;;1.73;;
79249;SDS011;68679;51.030;7.584;2023-09-30T14:19:39;3.13;;;1.60;;
79249;SDS011;68679;51.030;7.584;2023-09-30T14:22:05;4.43;;;2.00;;
79249;SDS011;68679;51.030;7.584;2023-09-30T14:24:33;5.95;;;1.90;;
79249;SDS011;68679;51.030;7.584;2023-09-30T14:26:59;4.90;;;2.20;;
79249;SDS011;68679;51.030;7.584;2023-09-30T14:29:28;2.88;;;1.60;;
79249;SDS011;68679;51.030;7.584;2023-09-30T14:31:54;3.72;;;1.63;;
79249;SDS011;68679;51.030;7.584;2023-09-30T14:34:19;4.22;;;1.95;;
79249;SDS011;68679;51.030;7.584;2023-09-30T14:36:45;3.83;;;1.48;;
79249;SDS011;68679;51.030;7.584;2023-09-30T14:39:10;3.20;;;1.63;;
79249;SDS011;68679;51.030;7.584;2023-09-30T14:41:36;3.80;;;1.90;;
79249;SDS011;68679;51.030;7.584;2023-09-30T14:44:01;6.20;;;2.15;;
79249;SDS011;68679;51.030;7.584;2023-09-30T14:46:28;4.35;;;2.20;;
79249;SDS011;68679;51.030;7.584;2023-09-30T14:48:54;4.85;;;1.90;;
79249;SDS011;68679;51.030;7.584;2023-09-30T14:51:22;6.37;;;2.33;;
79249;SDS011;68679;51.030;7.584;2023-09-30T14:53:48;5.05;;;1.55;;
79249;SDS011;68679;51.030;7.584;2023-09-30T14:56:14;3.90;;;1.98;;
79249;SDS011;68679;51.030;7.584;2023-09-30T14:58:41;4.72;;;1.95;;
79249;SDS011;68679;51.030;7.584;2023-09-30T15:01:10;2.97;;;1.77;;